createdAt,value
2023-01-19T00:01:37.320Z,0.33
2023-01-19T00:04:05.351Z,0.30
2023-01-19T00:06:32.970Z,0.25
2023-01-19T00:09:00.602Z,0.20
2023-01-19T00:11:28.220Z,0.30
2023-01-19T00:13:55.969Z,0.40
2023-01-19T00:16:23.785Z,0.20
2023-01-19T00:18:52.890Z,0.20
2023-01-19T00:21:21.758Z,0.35
2023-01-19T00:23:51.298Z,0.20
2023-01-19T00:26:21.171Z,0.40
2023-01-19T00:28:50.376Z,0.30
2023-01-19T00:31:20.816Z,0.20
2023-01-19T00:33:50.188Z,0.45
2023-01-19T00:36:17.887Z,0.47
2023-01-19T00:38:45.431Z,0.77
2023-01-19T00:41:13.014Z,0.20
2023-01-19T00:43:40.535Z,0.35
2023-01-19T00:46:08.350Z,0.50
2023-01-19T00:48:36.166Z,0.28
2023-01-19T00:51:03.965Z,0.30
2023-01-19T00:53:32.675Z,0.28
2023-01-19T00:56:00.288Z,0.32
2023-01-19T00:58:27.854Z,0.30
2023-01-19T01:00:57.924Z,0.75
2023-01-19T01:03:28.153Z,0.30
2023-01-19T01:05:56.055Z,0.40
2023-01-19T01:08:23.815Z,0.20
2023-01-19T01:10:51.919Z,0.50
2023-01-19T01:13:21.267Z,0.30
2023-01-19T01:15:51.720Z,0.30
2023-01-19T01:18:20.471Z,0.50
2023-01-19T01:20:48.387Z,0.45
2023-01-19T01:27:29.391Z,0.40
2023-01-19T01:29:56.971Z,0.50
2023-01-19T01:32:24.584Z,0.40
2023-01-19T01:34:52.174Z,0.38
2023-01-19T01:37:19.744Z,0.60
2023-01-19T01:39:49.452Z,0.32
2023-01-19T01:42:19.985Z,0.47
2023-01-19T01:44:56.030Z,0.60
2023-01-19T01:47:47.340Z,0.38
2023-01-19T01:50:21.443Z,0.40
2023-01-19T01:53:13.502Z,0.50
2023-01-19T01:55:49.236Z,0.40
2023-01-19T01:58:17.229Z,0.30
2023-01-19T02:01:03.423Z,0.40
2023-01-19T02:03:32.733Z,0.40
2023-01-19T02:06:04.884Z,0.60
2023-01-19T02:09:03.911Z,0.30
2023-01-19T02:11:51.117Z,0.30
2023-01-19T02:14:21.500Z,0.43
2023-01-19T02:16:49.357Z,0.38
2023-01-19T02:19:24.552Z,0.57
2023-01-19T02:22:04.187Z,0.40
2023-01-19T02:24:35.825Z,0.30
2023-01-19T02:27:04.812Z,0.45
2023-01-19T02:29:33.992Z,0.80
2023-01-19T02:32:03.411Z,0.63
2023-01-19T02:34:32.321Z,0.40
2023-01-19T02:37:06.769Z,0.30
2023-01-19T02:39:43.341Z,0.57
2023-01-19T02:42:18.992Z,0.70
2023-01-19T02:44:50.364Z,0.30
2023-01-19T02:47:18.555Z,0.40
2023-01-19T02:54:04.872Z,0.50
2023-01-19T02:56:55.588Z,0.30
2023-01-19T02:59:41.573Z,0.68
2023-01-19T03:02:47.919Z,0.53
2023-01-19T03:05:26.877Z,0.73
2023-01-19T03:08:30.578Z,0.57
2023-01-19T03:11:11.749Z,0.90
2023-01-19T03:14:01.635Z,0.40
2023-01-19T03:16:50.547Z,0.40
2023-01-19T03:19:22.330Z,0.70
2023-01-19T03:21:58.543Z,0.50
2023-01-19T03:24:31.580Z,0.50
2023-01-19T03:27:05.397Z,0.57
2023-01-19T03:29:35.177Z,0.67
2023-01-19T03:32:07.450Z,0.40
2023-01-19T03:34:38.484Z,0.50
2023-01-19T03:37:10.367Z,0.57
2023-01-19T03:39:38.059Z,0.43
2023-01-19T03:42:10.956Z,0.60
2023-01-19T03:45:37.813Z,0.30
2023-01-19T03:48:06.388Z,0.50
2023-01-19T03:50:34.003Z,0.60
2023-01-19T03:53:06.205Z,0.55
2023-01-19T03:55:35.136Z,0.40
2023-01-19T03:58:02.763Z,0.40
2023-01-19T04:00:30.570Z,0.52
2023-01-19T04:02:58.622Z,0.38
2023-01-19T04:05:26.530Z,0.50
2023-01-19T04:07:54.178Z,0.30
2023-01-19T04:10:22.425Z,0.45
2023-01-19T04:12:50.021Z,0.47
2023-01-19T04:15:18.692Z,0.40
2023-01-19T04:17:46.232Z,0.40
2023-01-19T04:20:13.908Z,0.40
2023-01-19T04:27:15.101Z,0.43
2023-01-19T04:29:42.739Z,0.50
2023-01-19T04:32:10.294Z,0.40
2023-01-19T04:34:38.566Z,0.30
2023-01-19T04:37:06.666Z,0.40
2023-01-19T04:39:35.100Z,0.30
2023-01-19T04:42:02.687Z,0.30
2023-01-19T04:44:30.272Z,0.40
2023-01-19T04:46:57.836Z,0.50
2023-01-19T04:49:25.488Z,0.60
2023-01-19T04:51:54.193Z,0.50
2023-01-19T04:54:22.270Z,0.50
2023-01-19T04:56:50.001Z,0.50
2023-01-19T04:59:17.642Z,0.50
2023-01-19T05:01:45.289Z,0.63
2023-01-19T05:04:13.032Z,0.40
2023-01-19T05:06:40.640Z,0.40
2023-01-19T05:09:09.229Z,0.47
2023-01-19T05:11:36.831Z,0.50
2023-01-19T05:14:04.843Z,0.70
2023-01-19T05:16:33.176Z,0.60
2023-01-19T05:19:00.946Z,0.50
2023-01-19T05:21:28.560Z,0.55
2023-01-19T05:23:56.109Z,0.77
2023-01-19T05:26:23.960Z,0.63
2023-01-19T05:28:51.581Z,0.38
2023-01-19T05:31:19.734Z,0.50
2023-01-19T05:33:48.351Z,0.80
2023-01-19T05:36:15.984Z,0.50
2023-01-19T05:38:43.616Z,0.82
2023-01-19T05:41:11.661Z,0.80
2023-01-19T05:43:39.241Z,1.08
2023-01-19T05:46:07.018Z,0.70
2023-01-19T05:48:34.656Z,0.60
2023-01-19T05:51:02.195Z,0.82
2023-01-19T05:53:29.819Z,0.70
2023-01-19T05:56:05.678Z,0.85
2023-01-19T05:58:34.551Z,1.10
2023-01-19T06:01:05.716Z,1.07
2023-01-19T06:03:34.791Z,1.00
2023-01-19T06:06:03.453Z,0.90
2023-01-19T06:08:31.171Z,0.70
2023-01-19T06:10:58.777Z,1.00
2023-01-19T06:13:26.483Z,0.80
2023-01-19T06:16:02.117Z,1.10
2023-01-19T06:18:30.196Z,1.30
2023-01-19T06:21:00.449Z,1.00
2023-01-19T06:23:30.810Z,1.17
2023-01-19T06:25:58.477Z,0.80
2023-01-19T06:28:26.079Z,0.95
2023-01-19T06:30:55.344Z,1.10
2023-01-19T06:33:24.160Z,0.90
2023-01-19T06:35:52.404Z,0.88
2023-01-19T06:38:20.427Z,0.90
2023-01-19T06:40:58.362Z,0.80
2023-01-19T06:43:27.085Z,0.80
2023-01-19T06:45:56.227Z,0.90
2023-01-19T06:48:24.340Z,0.65
2023-01-19T06:50:52.044Z,0.93
2023-01-19T06:53:20.876Z,0.93
2023-01-19T06:55:49.985Z,0.75
2023-01-19T06:58:17.989Z,1.08
2023-01-19T07:00:45.551Z,0.82
2023-01-19T07:03:20.734Z,1.07
2023-01-19T07:05:52.057Z,1.20
2023-01-19T07:08:19.875Z,0.93
2023-01-19T07:11:24.689Z,1.02
2023-01-19T07:13:37.003Z,1.23
2023-01-19T07:16:10.335Z,1.30
2023-01-19T07:18:39.659Z,1.17
2023-01-19T07:21:07.778Z,0.88
2023-01-19T07:23:35.680Z,1.20
2023-01-19T07:26:03.307Z,1.33
2023-01-19T07:28:31.792Z,1.20
2023-01-19T07:30:59.729Z,1.30
2023-01-19T07:33:27.488Z,1.20
2023-01-19T07:35:55.116Z,0.88
2023-01-19T07:38:23.038Z,1.13
2023-01-19T07:40:50.731Z,0.87
2023-01-19T07:43:18.376Z,1.10
2023-01-19T07:45:46.084Z,1.00
2023-01-19T07:48:14.209Z,1.10
2023-01-19T07:50:41.984Z,1.20
2023-01-19T07:53:09.981Z,1.17
2023-01-19T07:55:37.874Z,1.40
2023-01-19T07:58:07.442Z,1.38
2023-01-19T08:00:36.572Z,1.20
2023-01-19T08:03:05.462Z,1.63
2023-01-19T08:05:33.930Z,1.40
2023-01-19T08:08:01.579Z,2.10
2023-01-19T08:10:29.375Z,1.40
2023-01-19T08:12:58.571Z,1.33
2023-01-19T08:15:26.759Z,1.17
2023-01-19T08:17:58.984Z,1.27
2023-01-19T08:20:28.156Z,1.10
2023-01-19T08:23:00.452Z,0.90
2023-01-19T08:25:40.994Z,0.55
2023-01-19T08:28:09.579Z,0.88
2023-01-19T11:24:40.079Z,0.30
2023-01-19T11:27:08.452Z,0.30
2023-01-19T11:30:02.255Z,0.27
2023-01-19T11:32:30.254Z,0.30
2023-01-19T11:34:58.008Z,0.20
2023-01-19T11:37:29.219Z,0.60
2023-01-19T11:39:59.225Z,0.50
2023-01-19T11:42:30.577Z,0.30
2023-01-19T11:44:58.162Z,0.40
2023-01-19T11:47:28.422Z,0.40
2023-01-19T11:50:04.298Z,0.30
2023-01-19T11:53:02.158Z,0.40
2023-01-19T11:55:48.658Z,0.30
2023-01-19T11:58:18.393Z,0.30
2023-01-19T12:01:00.789Z,0.47
2023-01-19T12:03:34.689Z,0.50
2023-01-19T12:06:07.744Z,0.28
2023-01-19T12:08:41.891Z,0.27
2023-01-19T12:11:12.758Z,0.30
2023-01-19T12:13:44.063Z,0.30
2023-01-19T12:16:20.978Z,0.40
2023-01-19T12:18:54.605Z,0.40
2023-01-19T12:21:22.898Z,0.20
2023-01-19T12:24:08.880Z,0.50
2023-01-19T12:26:58.751Z,0.50
2023-01-19T12:29:31.492Z,0.52
2023-01-19T12:32:14.141Z,0.60
2023-01-19T12:34:50.024Z,0.30
2023-01-19T12:37:36.012Z,0.35
2023-01-19T12:40:19.179Z,0.82
2023-01-19T12:42:53.413Z,0.40
2023-01-19T12:45:29.408Z,0.63
2023-01-19T12:47:57.071Z,0.50
2023-01-19T12:50:26.004Z,0.50
2023-01-19T12:52:58.549Z,0.30
2023-01-19T12:55:28.345Z,0.30
2023-01-19T13:02:28.006Z,0.20
2023-01-19T13:05:10.783Z,0.70
2023-01-19T13:08:05.049Z,0.60
2023-01-19T13:14:37.047Z,0.65
2023-01-19T13:17:15.662Z,0.30
2023-01-19T13:20:20.817Z,0.30
2023-01-19T13:24:02.812Z,0.28
2023-01-19T13:26:40.056Z,0.15
2023-01-19T13:29:49.175Z,0.40
2023-01-19T13:32:20.007Z,0.30
2023-01-19T13:34:57.677Z,0.40
2023-01-19T13:41:34.888Z,0.43
2023-01-19T13:44:25.102Z,0.30
2023-01-19T13:51:19.128Z,0.20
2023-01-19T13:54:03.232Z,0.22
2023-01-19T14:00:31.170Z,0.60
2023-01-19T14:06:40.197Z,0.47
2023-01-19T14:09:17.553Z,0.60
2023-01-19T14:12:41.614Z,0.32
2023-01-19T14:15:14.457Z,0.50
2023-01-19T14:17:42.311Z,0.33
2023-01-19T14:20:29.752Z,0.30
2023-01-19T14:22:57.423Z,0.50
2023-01-19T14:25:39.345Z,0.85
2023-01-19T14:28:40.962Z,0.90
2023-01-19T14:31:25.029Z,0.70
2023-01-19T14:34:10.402Z,0.38
2023-01-19T14:36:42.047Z,0.60
2023-01-19T14:39:22.402Z,0.50
2023-01-19T14:41:52.907Z,0.32
2023-01-19T14:44:35.049Z,0.60
2023-01-19T14:47:04.133Z,0.50
2023-01-19T14:49:46.457Z,0.32
2023-01-19T14:52:25.297Z,0.40
2023-01-19T14:54:54.066Z,0.40
2023-01-19T14:57:21.715Z,0.80
2023-01-19T14:59:50.367Z,1.00
2023-01-19T15:02:21.072Z,0.68
2023-01-19T15:04:48.782Z,0.40
2023-01-19T15:07:20.213Z,0.50
2023-01-19T15:09:48.394Z,0.40
2023-01-19T15:12:18.633Z,0.35
2023-01-19T15:14:46.642Z,0.38
2023-01-19T15:17:25.395Z,0.20
2023-01-19T15:19:54.711Z,0.40
2023-01-19T15:22:26.743Z,0.50
2023-01-19T15:24:57.688Z,0.30
2023-01-19T15:27:26.938Z,0.30
2023-01-19T15:29:54.612Z,0.63
2023-01-19T15:32:22.190Z,0.60
2023-01-19T15:34:50.455Z,0.50
2023-01-19T15:37:18.102Z,0.30
2023-01-19T15:39:45.671Z,0.20
2023-01-19T15:42:14.563Z,0.43
2023-01-19T15:44:42.191Z,0.22
2023-01-19T15:47:10.286Z,0.40
2023-01-19T15:49:38.228Z,0.45
2023-01-19T15:52:05.813Z,0.50
2023-01-19T15:54:33.453Z,0.60
2023-01-19T15:57:01.030Z,0.30
2023-01-19T15:59:28.652Z,0.20
2023-01-19T16:01:56.404Z,0.40
2023-01-19T16:04:24.091Z,0.45
2023-01-19T16:06:51.702Z,0.30
2023-01-19T16:09:20.198Z,0.22
2023-01-19T16:11:47.875Z,0.30
2023-01-19T16:14:17.392Z,0.25
2023-01-19T16:16:46.252Z,0.20
2023-01-19T16:19:15.920Z,0.20
2023-01-19T16:21:44.108Z,0.40
2023-01-19T16:24:11.775Z,0.40
2023-01-19T16:26:39.447Z,0.50
2023-01-19T16:29:09.957Z,0.40
2023-01-19T16:31:39.527Z,0.40
2023-01-19T16:34:08.178Z,0.40
2023-01-19T16:36:37.484Z,0.33
2023-01-19T16:39:08.170Z,0.30
2023-01-19T16:41:36.772Z,0.50
2023-01-19T16:44:05.172Z,0.30
2023-01-19T16:46:35.441Z,0.45
2023-01-19T16:49:06.083Z,0.30
2023-01-19T16:51:33.920Z,0.57
2023-01-19T16:54:01.496Z,0.40
2023-01-19T16:56:29.101Z,0.30
2023-01-19T16:58:58.354Z,0.63
2023-01-19T17:01:28.489Z,1.73
2023-01-19T17:03:56.500Z,0.50
2023-01-19T17:06:25.015Z,0.70
2023-01-19T17:08:53.239Z,0.75
2023-01-19T17:11:23.921Z,0.50
2023-01-19T17:13:56.969Z,0.97
2023-01-19T17:16:25.435Z,0.28
2023-01-19T17:18:53.683Z,0.63
2023-01-19T17:21:21.380Z,0.52
2023-01-19T17:23:51.888Z,1.83
2023-01-19T17:26:20.885Z,2.00
2023-01-19T17:28:48.557Z,2.15
2023-01-19T17:31:18.971Z,1.35
2023-01-19T17:33:48.847Z,1.73
2023-01-19T17:36:22.633Z,1.67
2023-01-19T17:38:51.075Z,1.27
2023-01-19T17:41:25.532Z,1.05
2023-01-19T17:43:53.754Z,0.82
2023-01-19T17:46:23.792Z,0.82
2023-01-19T17:48:56.301Z,0.65
2023-01-19T17:51:25.018Z,0.83
2023-01-19T17:53:53.687Z,0.90
2023-01-19T17:56:27.523Z,0.80
2023-01-19T17:58:56.411Z,1.15
2023-01-19T18:01:26.298Z,0.70
2023-01-19T18:03:54.557Z,0.97
2023-01-19T18:06:22.636Z,0.85
2023-01-19T18:08:50.590Z,0.80
2023-01-19T18:11:20.392Z,0.95
2023-01-19T18:13:50.006Z,1.27
2023-01-19T18:16:22.114Z,1.40
2023-01-19T18:18:50.734Z,1.52
2023-01-19T18:21:18.461Z,1.30
2023-01-19T18:23:46.247Z,1.00
2023-01-19T18:26:16.794Z,0.70
2023-01-19T18:28:44.529Z,0.80
2023-01-19T18:31:15.474Z,1.00
2023-01-19T18:33:43.600Z,0.60
2023-01-19T18:36:11.924Z,0.75
2023-01-19T18:38:40.447Z,0.75
2023-01-19T18:41:11.493Z,0.80
2023-01-19T18:43:39.734Z,0.82
2023-01-19T18:46:07.496Z,0.77
2023-01-19T18:48:36.642Z,0.98
2023-01-19T18:51:12.482Z,0.80
2023-01-19T18:53:40.595Z,0.90
2023-01-19T18:56:11.187Z,0.90
2023-01-19T18:58:39.941Z,0.80
2023-01-19T19:01:32.217Z,1.30
2023-01-19T19:04:00.490Z,0.85
2023-01-19T19:06:28.359Z,1.00
2023-01-19T19:08:59.273Z,0.60
2023-01-19T19:11:27.798Z,1.30
2023-01-19T19:13:59.256Z,0.80
2023-01-19T19:16:27.857Z,0.65
2023-01-19T19:18:55.571Z,0.80
2023-01-19T19:21:25.554Z,0.95
2023-01-19T19:23:55.635Z,0.90
2023-01-19T19:26:25.640Z,0.90
2023-01-19T19:28:53.500Z,0.88
2023-01-19T19:31:23.049Z,0.80
2023-01-19T19:33:51.321Z,1.77
2023-01-19T19:36:20.996Z,2.40
2023-01-19T19:38:49.977Z,1.63
2023-01-19T19:41:20.630Z,1.42
2023-01-19T19:43:48.603Z,1.30
2023-01-19T19:46:19.959Z,1.13
2023-01-19T19:48:48.843Z,1.08
2023-01-19T19:51:28.390Z,0.98
2023-01-19T19:54:01.549Z,1.50
2023-01-19T19:56:31.128Z,1.37
2023-01-19T19:58:59.664Z,1.38
2023-01-19T20:01:33.229Z,1.45
2023-01-19T20:04:10.772Z,1.63
2023-01-19T20:06:44.838Z,1.80
2023-01-19T20:09:14.246Z,1.70
2023-01-19T20:11:43.730Z,1.08
2023-01-19T20:14:12.863Z,1.10
2023-01-19T20:16:40.745Z,0.80
2023-01-19T20:19:08.647Z,0.50
2023-01-19T20:21:38.058Z,3.27
2023-01-19T20:24:09.790Z,3.30
2023-01-19T20:26:40.597Z,1.27
2023-01-19T20:29:10.383Z,1.10
2023-01-19T20:31:50.900Z,0.88
2023-01-19T20:37:23.073Z,2.97
2023-01-19T20:39:50.767Z,3.40
2023-01-19T20:42:18.514Z,1.45
2023-01-19T20:44:46.263Z,1.10
2023-01-19T20:47:13.968Z,2.07
2023-01-19T20:49:42.094Z,1.30
2023-01-19T20:52:10.325Z,1.30
2023-01-19T20:54:39.799Z,1.20
2023-01-19T20:57:07.494Z,0.93
2023-01-19T20:59:37.093Z,0.83
2023-01-19T21:02:07.894Z,1.08
2023-01-19T21:04:35.682Z,0.70
2023-01-19T21:07:03.805Z,0.85
2023-01-19T21:09:31.588Z,1.00
2023-01-19T21:11:59.312Z,1.03
2023-01-19T21:14:27.458Z,1.33
2023-01-19T21:16:58.417Z,1.40
2023-01-19T21:19:26.258Z,1.40
2023-01-19T21:21:55.320Z,1.25
2023-01-19T21:24:22.963Z,1.00
2023-01-19T21:27:01.991Z,1.10
2023-01-19T21:29:29.841Z,0.80
2023-01-19T21:31:57.523Z,0.88
2023-01-19T21:34:25.365Z,0.70
2023-01-19T21:36:53.015Z,1.10
2023-01-19T21:39:20.768Z,0.73
2023-01-19T21:41:48.339Z,0.65
2023-01-19T21:44:16.100Z,0.50
2023-01-19T21:46:43.765Z,0.50
2023-01-19T21:49:17.410Z,0.70
2023-01-19T21:51:47.880Z,0.80
2023-01-19T21:54:15.668Z,0.82
2023-01-19T21:56:43.739Z,0.70
2023-01-19T21:59:14.754Z,0.73
2023-01-19T22:01:44.945Z,0.80
2023-01-19T22:04:12.659Z,1.35
2023-01-19T22:06:40.801Z,1.00
2023-01-19T22:09:08.751Z,0.90
2023-01-19T22:11:36.371Z,0.80
2023-01-19T22:14:04.344Z,0.90
2023-01-19T22:16:32.157Z,0.50
2023-01-19T22:19:04.372Z,0.60
2023-01-19T22:21:35.966Z,0.93
2023-01-19T22:24:05.109Z,1.00
2023-01-19T22:26:34.383Z,0.77
2023-01-19T22:29:03.421Z,0.50
2023-01-19T22:31:31.311Z,0.88
2023-01-19T22:33:59.275Z,0.52
2023-01-19T22:36:34.155Z,0.50
2023-01-19T22:39:26.634Z,0.87
2023-01-19T22:41:54.539Z,0.80
2023-01-19T22:44:22.435Z,0.68
2023-01-19T22:46:51.034Z,0.70
2023-01-19T22:50:11.568Z,0.55
2023-01-19T22:52:39.234Z,0.73
2023-01-19T22:55:06.989Z,1.10
2023-01-19T22:57:36.780Z,1.10
2023-01-19T23:00:08.963Z,0.90
2023-01-19T23:02:37.378Z,0.90
2023-01-19T23:05:05.372Z,0.60
2023-01-19T23:07:33.015Z,0.60
2023-01-19T23:10:00.670Z,0.60
2023-01-19T23:12:28.228Z,1.33
2023-01-19T23:14:55.797Z,0.70
2023-01-19T23:17:23.787Z,1.17
2023-01-19T23:19:52.287Z,0.93
2023-01-19T23:22:20.559Z,0.50
2023-01-19T23:24:48.159Z,0.85
2023-01-19T23:27:15.773Z,0.70
2023-01-19T23:29:43.297Z,1.07
2023-01-19T23:32:10.929Z,0.95
2023-01-19T23:34:38.603Z,0.90
2023-01-19T23:37:06.224Z,1.00
2023-01-19T23:39:33.847Z,1.13
2023-01-19T23:42:05.119Z,0.90
2023-01-19T23:44:32.825Z,1.10
2023-01-19T23:47:00.444Z,1.00
2023-01-19T23:49:28.155Z,1.40
2023-01-19T23:51:55.721Z,1.48
2023-01-19T23:54:23.374Z,1.20
2023-01-19T23:56:54.732Z,1.10
2023-01-19T23:59:22.306Z,1.17
